createdAt,value
2019-03-24T00:00:23.837Z,19.12
2019-03-24T00:06:28.658Z,21.80
2019-03-24T00:12:33.845Z,20.80
2019-03-24T00:18:38.744Z,18.87
2019-03-24T00:24:43.520Z,22.45
2019-03-24T00:30:48.392Z,19.70
2019-03-24T00:36:53.704Z,16.25
2019-03-24T00:42:58.758Z,20.55
2019-03-24T00:49:03.502Z,17.00
2019-03-24T00:55:08.448Z,17.13
2019-03-24T01:01:13.343Z,19.82
2019-03-24T01:07:18.128Z,18.80
2019-03-24T01:13:25.984Z,24.12
2019-03-24T01:19:30.846Z,17.12
2019-03-24T01:25:35.809Z,20.00
2019-03-24T01:31:40.595Z,27.22
2019-03-24T01:37:45.378Z,19.12
2019-03-24T01:43:50.123Z,18.90
2019-03-24T01:49:55.023Z,21.57
2019-03-24T01:55:59.817Z,21.75
2019-03-24T02:02:04.675Z,23.77
2019-03-24T02:08:09.445Z,15.23
2019-03-24T02:14:14.277Z,21.07
2019-03-24T02:20:19.110Z,19.50
2019-03-24T02:26:23.985Z,19.27
2019-03-24T02:32:28.905Z,22.27
2019-03-24T02:38:33.710Z,23.77
2019-03-24T02:44:38.562Z,21.02
2019-03-24T02:50:43.424Z,22.43
2019-03-24T02:56:48.220Z,22.30
2019-03-24T03:02:53.083Z,21.20
2019-03-24T03:08:57.856Z,21.87
2019-03-24T03:15:02.729Z,21.23
2019-03-24T03:21:07.539Z,22.22
2019-03-24T03:27:12.346Z,25.13
2019-03-24T03:33:17.235Z,23.93
2019-03-24T03:39:22.349Z,26.87
2019-03-24T03:45:28.830Z,26.67
2019-03-24T03:51:33.948Z,26.75
2019-03-24T03:57:38.790Z,25.13
2019-03-24T04:03:43.602Z,25.30
2019-03-24T04:09:48.653Z,25.87
2019-03-24T04:15:53.450Z,27.57
2019-03-24T04:21:58.499Z,26.13
2019-03-24T04:28:03.364Z,25.03
2019-03-24T04:34:08.222Z,25.33
2019-03-24T04:40:13.028Z,27.03
2019-03-24T04:46:17.882Z,33.00
2019-03-24T04:52:23.046Z,27.47
2019-03-24T04:58:27.932Z,27.37
2019-03-24T05:04:33.059Z,32.07
2019-03-24T05:10:37.936Z,31.03
2019-03-24T05:16:43.130Z,27.73
2019-03-24T05:22:48.409Z,35.00
2019-03-24T05:28:53.172Z,29.43
2019-03-24T05:34:57.974Z,31.97
2019-03-24T05:41:02.828Z,25.00
2019-03-24T05:47:07.618Z,28.27
2019-03-24T05:53:12.502Z,30.60
2019-03-24T05:59:17.310Z,24.30
2019-03-24T06:05:22.185Z,28.73
2019-03-24T06:11:26.985Z,31.10
2019-03-24T06:17:31.843Z,31.80
2019-03-24T06:23:36.710Z,25.87
2019-03-24T06:29:41.594Z,26.67
2019-03-24T06:35:46.559Z,29.53
2019-03-24T06:41:51.519Z,25.20
2019-03-24T06:47:58.261Z,23.80
2019-03-24T06:54:02.955Z,22.10
2019-03-24T07:00:08.205Z,22.13
2019-03-24T07:06:13.186Z,26.00
2019-03-24T07:12:18.083Z,20.17
2019-03-24T07:18:22.923Z,22.70
2019-03-24T07:24:27.734Z,23.00
2019-03-24T07:30:32.606Z,22.50
2019-03-24T07:36:37.393Z,18.42
2019-03-24T07:42:42.237Z,20.75
2019-03-24T07:48:47.006Z,20.62
2019-03-24T07:54:51.873Z,18.37
2019-03-24T08:00:56.938Z,24.72
2019-03-24T08:07:01.826Z,20.75
2019-03-24T08:13:06.611Z,16.40
2019-03-24T08:19:11.428Z,13.85
2019-03-24T08:25:16.337Z,15.68
2019-03-24T08:31:21.217Z,14.25
2019-03-24T08:37:26.054Z,10.68
2019-03-24T08:43:30.810Z,13.85
2019-03-24T08:49:38.191Z,11.18
2019-03-24T08:55:42.924Z,14.38
2019-03-24T09:01:47.708Z,13.80
2019-03-24T09:07:52.470Z,10.85
2019-03-24T09:13:57.395Z,9.68
2019-03-24T09:20:02.264Z,13.62
2019-03-24T09:26:07.053Z,10.05
2019-03-24T09:32:11.818Z,8.40
2019-03-24T09:38:16.575Z,9.50
2019-03-24T09:44:21.334Z,6.50
2019-03-24T09:50:26.156Z,9.50
2019-03-24T09:56:31.239Z,8.08
2019-03-24T10:02:36.168Z,14.07
2019-03-24T10:08:46.941Z,12.13
2019-03-24T10:14:47.630Z,11.60
2019-03-24T10:20:52.397Z,9.73
2019-03-24T10:26:57.232Z,9.95
2019-03-24T10:33:02.061Z,7.40
2019-03-24T10:39:07.619Z,8.60
2019-03-24T10:45:12.881Z,9.83
2019-03-24T10:51:17.731Z,12.65
2019-03-24T10:57:22.592Z,9.25
2019-03-24T11:03:27.412Z,8.23
2019-03-24T11:09:32.367Z,9.38
2019-03-24T11:15:37.333Z,7.50
2019-03-24T11:21:42.177Z,9.63
2019-03-24T11:27:46.936Z,11.40
2019-03-24T11:33:51.701Z,12.90
2019-03-24T11:39:56.655Z,11.48
2019-03-24T11:46:01.499Z,12.20
2019-03-24T11:52:06.427Z,9.05
2019-03-24T11:58:11.229Z,7.40
2019-03-24T12:04:16.257Z,9.25
2019-03-24T12:10:21.113Z,5.42
2019-03-24T12:16:25.956Z,9.70
2019-03-24T12:22:31.675Z,10.35
2019-03-24T12:28:36.539Z,9.30
2019-03-24T12:34:41.401Z,7.97
2019-03-24T12:40:46.443Z,11.78
2019-03-24T12:46:51.328Z,7.25
2019-03-24T12:52:56.407Z,6.05
2019-03-24T12:59:02.847Z,4.62
2019-03-24T13:05:08.518Z,8.58
2019-03-24T13:11:13.318Z,8.10
2019-03-24T13:17:18.102Z,6.97
2019-03-24T13:23:23.076Z,6.47
2019-03-24T13:29:27.869Z,8.45
2019-03-24T13:35:32.756Z,8.48
2019-03-24T13:41:37.736Z,7.65
2019-03-24T13:47:42.547Z,8.18
2019-03-24T13:53:47.348Z,7.95
2019-03-24T13:59:52.082Z,9.50
2019-03-24T14:05:56.832Z,9.88
2019-03-24T14:12:01.663Z,10.10
2019-03-24T14:18:06.396Z,9.63
2019-03-24T14:24:11.302Z,8.45
2019-03-24T14:30:16.078Z,4.67
2019-03-24T14:36:20.899Z,5.85
2019-03-24T14:42:25.641Z,6.35
2019-03-24T14:48:30.550Z,6.40
2019-03-24T14:54:35.287Z,5.40
2019-03-24T15:00:42.054Z,6.22
2019-03-24T15:06:46.844Z,6.35
2019-03-24T15:12:51.665Z,7.45
2019-03-24T15:18:56.548Z,8.10
2019-03-24T15:25:01.341Z,5.87
2019-03-24T15:31:06.223Z,6.53
2019-03-24T15:37:11.408Z,8.18
2019-03-24T15:43:16.410Z,7.90
2019-03-24T15:49:24.271Z,7.28
2019-03-24T15:55:29.140Z,10.03
2019-03-24T16:01:34.035Z,6.35
2019-03-24T16:07:38.875Z,5.62
2019-03-24T16:13:43.732Z,5.97
2019-03-24T16:19:48.597Z,6.17
2019-03-24T16:25:55.673Z,4.20
2019-03-24T16:31:59.895Z,6.87
2019-03-24T16:38:04.674Z,7.08
2019-03-24T16:44:09.575Z,4.75
2019-03-24T16:50:15.400Z,3.77
2019-03-24T16:56:20.240Z,2.50
2019-03-24T17:02:25.303Z,6.25
2019-03-24T17:08:30.178Z,5.30
2019-03-24T17:14:35.808Z,7.20
2019-03-24T17:20:40.794Z,4.35
2019-03-24T17:26:45.778Z,6.30
2019-03-24T17:32:50.770Z,6.37
2019-03-24T17:38:55.542Z,7.10
2019-03-24T17:45:00.398Z,5.95
2019-03-24T17:51:05.350Z,24.57
2019-03-24T17:57:10.292Z,9.13
2019-03-24T18:03:15.370Z,7.33
2019-03-24T18:09:20.205Z,8.50
2019-03-24T18:15:25.139Z,21.87
2019-03-24T18:21:30.008Z,18.82
2019-03-24T18:27:34.761Z,11.00
2019-03-24T18:33:39.509Z,5.40
2019-03-24T18:39:44.385Z,13.93
2019-03-24T18:45:49.230Z,30.52
2019-03-24T18:51:54.256Z,28.55
2019-03-24T18:58:00.106Z,28.57
2019-03-24T19:04:04.946Z,22.42
2019-03-24T19:10:10.929Z,58.50
2019-03-24T19:16:15.956Z,31.25
2019-03-24T19:22:20.779Z,14.40
2019-03-24T19:28:26.492Z,26.93
2019-03-24T19:34:31.548Z,26.68
2019-03-24T19:40:36.597Z,21.85
2019-03-24T19:46:41.452Z,16.12
2019-03-24T19:52:46.279Z,51.92
2019-03-24T19:58:51.367Z,29.55
2019-03-24T20:04:56.267Z,28.55
2019-03-24T20:11:01.117Z,17.60
2019-03-24T20:17:06.224Z,15.98
2019-03-24T20:23:10.976Z,13.22
2019-03-24T20:29:15.833Z,9.53
2019-03-24T20:35:20.873Z,60.17
2019-03-24T20:41:25.989Z,10.40
2019-03-24T20:47:31.735Z,6.42
2019-03-24T20:53:36.539Z,8.33
2019-03-24T20:59:41.374Z,7.25
2019-03-24T21:05:46.233Z,5.62
2019-03-24T21:11:51.012Z,8.85
2019-03-24T21:17:55.898Z,6.62
2019-03-24T21:24:00.798Z,7.75
2019-03-24T21:30:07.084Z,9.73
2019-03-24T21:36:12.138Z,6.50
2019-03-24T21:42:16.965Z,7.80
2019-03-24T21:48:21.884Z,11.28
2019-03-24T21:54:26.878Z,16.30
2019-03-24T22:00:36.772Z,9.40
2019-03-24T22:06:41.678Z,9.90
2019-03-24T22:12:46.424Z,13.18
2019-03-24T22:18:51.254Z,9.53
2019-03-24T22:24:56.245Z,7.87
2019-03-24T22:31:01.179Z,10.93
2019-03-24T22:37:15.426Z,12.05
2019-03-24T22:43:12.595Z,10.60
2019-03-24T22:49:17.410Z,12.70
2019-03-24T22:55:22.228Z,13.28
2019-03-24T23:01:27.395Z,12.93
2019-03-24T23:07:32.157Z,13.35
2019-03-24T23:13:37.169Z,15.72
2019-03-24T23:19:41.925Z,15.95
2019-03-24T23:25:46.697Z,16.37
2019-03-24T23:31:51.489Z,13.43
2019-03-24T23:37:56.289Z,15.80
2019-03-24T23:44:03.818Z,18.42
2019-03-24T23:50:08.043Z,15.25
2019-03-24T23:56:13.466Z,15.35
